Hlavní strana
METAR-TAF:

METAR-TAF

Letiště :

Letiště Brusel

Brusel, Belgie

zeměpisná šířka: 50-54N, zeměpisná délka: 004-32E, výška: 55 m

Aktuální stav počasí

Zpráva byla vytvořena před 15 minutami, v 20:50 UTC
Severní vítr 3 kt, proměnlivý mezi severozápadním a severoseverovýchodním
Teplota 18°C
Vlhkost vzduchu 59%
Tlak 1018 hPa
Viditelnost 10 km a více
Žádná oblačnost pod 1500 m, nevyskytují se cumulonimby.

METAR: EBBR 172050Z 35003KT 320V020 CAVOK 18/10 Q1018 NOSIG

Čas: 23:05 (21:05 UTC)

Předpověď počasí

Zpráva byla vytvořena před 4 hodinami a 5 minutami, v 17:00 UTC
Předpověď platná od 17 v 18 UTC do 18 v 24 UTC
vítr z různých směrů 5 kt
Viditelnost 10 km a více
Žádná oblačnost pod 1500 m, nevyskytují se cumulonimby.

TAF: EBBR 171700Z 1718/1824 VRB05KT CAVOK

Stav a předpovědi počasí z více než 4 000 letišť (zprávy METAR a TAF).

Červené a žluté tečky na mapě představují dostupné meteorologické stanice.

Když kurzor umístíte na tečku, zobrazí se název stanice.

Pak kliknutím zobrazíte stav a předpověď počasí.

Chcete-li změnit mapu, kliknutím na zelené tlačítko se znaménkem +mapu přiblížíte, kliknutím na zelené tlačítko se znaménkem – mapu oddálíte a kliknutím na zelené šipky přejdete na sousední mapy.


METAR-TAF: